Time;durP1;ratioP1;P1;durP2;ratioP2;P2;SDS_P1;SDS_P2;PMS_P1;PMS_P2;Temp;Humidity;BMP_temperature;BMP_pressure;BME280_temperature;BME280_humidity;BME280_pressure;Samples;Min_cycle;Max_cycle;Signal;HPM_P1;HPM_P2
2023/10/10 00:02:18;;;;;;;5.83;2.90;;;;;;;;;;5064433;28;20555;-52
2023/10/10 00:04:47;;;;;;;8.47;2.77;;;;;;;;;;5070660;28;20471;-53
2023/10/10 00:07:14;;;;;;;6.43;2.53;;;;;;;;;;5065108;28;20506;-56
2023/10/10 00:09:43;;;;;;;8.00;3.40;;;;;;;;;;5071318;28;20445;-55
2023/10/10 00:12:13;;;;;;;7.00;2.60;;;;;;;;;;5071870;28;20448;-54
2023/10/10 00:14:40;;;;;;;5.17;2.30;;;;;;;;;;5067367;28;20483;-54
2023/10/10 00:17:09;;;;;;;6.30;3.20;;;;;;;;;;5072129;28;20460;-53
2023/10/10 00:19:43;;;;;;;7.47;2.40;;;;;;;;;;5072304;28;20506;-55
2023/10/10 00:22:11;;;;;;;6.07;2.67;;;;;;;;;;5071956;28;20459;-53
2023/10/10 00:24:39;;;;;;;5.67;2.37;;;;;;;;;;5071760;28;20476;-54
2023/10/10 00:27:13;;;;;;;5.20;2.13;;;;;;;;;;5071174;28;20602;-53
2023/10/10 00:29:42;;;;;;;5.53;2.30;;;;;;;;;;5070150;28;20957;-54
2023/10/10 00:32:17;;;;;;;4.93;2.60;;;;;;;;;;5071257;28;20456;-54
2023/10/10 00:34:47;;;;;;;6.50;2.53;;;;;;;;;;5069575;28;20476;-54
2023/10/10 00:37:17;;;;;;;4.80;2.77;;;;;;;;;;5067491;28;20476;-53
2023/10/10 00:39:52;;;;;;;13.03;2.90;;;;;;;;;;5067718;28;20527;-53
2023/10/10 00:42:21;;;;;;;6.97;3.07;;;;;;;;;;5071034;28;20440;-53
2023/10/10 00:44:49;;;;;;;4.97;2.00;;;;;;;;;;5070937;28;20476;-53
2023/10/10 00:47:24;;;;;;;5.40;2.40;;;;;;;;;;5071439;28;20486;-53
2023/10/10 00:49:51;;;;;;;11.53;2.60;;;;;;;;;;5071182;28;20498;-53
2023/10/10 00:52:19;;;;;;;6.17;2.30;;;;;;;;;;5068356;28;20889;-53
2023/10/10 00:54:47;;;;;;;8.40;2.50;;;;;;;;;;5068538;28;20475;-54
2023/10/10 00:57:15;;;;;;;7.53;2.17;;;;;;;;;;5069110;28;20466;-55
2023/10/10 00:59:48;;;;;;;7.03;2.80;;;;;;;;;;5060733;28;20449;-53
2023/10/10 01:02:20;;;;;;;8.00;2.47;;;;;;;;;;5068490;28;20538;-53
2023/10/10 01:04:55;;;;;;;5.63;2.40;;;;;;;;;;5068293;28;20475;-54
2023/10/10 01:07:23;;;;;;;5.77;2.63;;;;;;;;;;5070285;28;20451;-53
2023/10/10 01:09:57;;;;;;;5.27;2.57;;;;;;;;;;5066885;28;20537;-53
2023/10/10 01:12:25;;;;;;;7.10;2.27;;;;;;;;;;5070328;28;20440;-54
2023/10/10 01:14:54;;;;;;;8.20;2.90;;;;;;;;;;5070904;28;20526;-53
2023/10/10 01:17:25;;;;;;;10.93;3.00;;;;;;;;;;5070566;28;20448;-53
2023/10/10 01:19:55;;;;;;;8.17;2.57;;;;;;;;;;5070693;28;20554;-54
2023/10/10 01:22:36;;;;;;;7.30;2.43;;;;;;;;;;5068832;28;20455;-53
2023/10/10 01:25:28;;;;;;;6.43;2.30;;;;;;;;;;5063860;28;20480;-54
2023/10/10 01:27:54;;;;;;;6.17;2.37;;;;;;;;;;5069409;28;20459;-54
2023/10/10 01:30:44;;;;;;;7.17;2.83;;;;;;;;;;5070914;28;20854;-54
2023/10/10 01:33:14;;;;;;;7.17;2.80;;;;;;;;;;5064969;28;20440;-53
2023/10/10 01:35:42;;;;;;;9.20;2.57;;;;;;;;;;5069169;28;20465;-55
2023/10/10 01:38:27;;;;;;;10.80;3.20;;;;;;;;;;5067891;28;20523;-53
2023/10/10 01:40:54;;;;;;;9.43;2.50;;;;;;;;;;5063761;28;20452;-55
2023/10/10 01:43:22;;;;;;;7.33;2.53;;;;;;;;;;5068229;28;20472;-53
2023/10/10 01:46:08;;;;;;;7.27;2.87;;;;;;;;;;5070426;28;20469;-54
2023/10/10 01:48:38;;;;;;;6.70;3.03;;;;;;;;;;5067181;28;20464;-54
2023/10/10 01:51:08;;;;;;;5.60;3.40;;;;;;;;;;5065340;28;20448;-54
2023/10/10 01:53:40;;;;;;;6.70;2.67;;;;;;;;;;5068367;28;20444;-54
2023/10/10 01:56:07;;;;;;;5.80;2.50;;;;;;;;;;5068775;28;20476;-53
2023/10/10 01:58:36;;;;;;;8.00;2.47;;;;;;;;;;5066703;28;20496;-55
2023/10/10 02:01:12;;;;;;;6.83;2.80;;;;;;;;;;5064506;28;20448;-54
2023/10/10 02:03:40;;;;;;;5.23;2.33;;;;;;;;;;5070476;28;20480;-53
2023/10/10 02:06:13;;;;;;;8.10;3.30;;;;;;;;;;5068742;28;20573;-54
2023/10/10 02:08:43;;;;;;;7.60;2.67;;;;;;;;;;5060505;28;20449;-53
2023/10/10 02:11:12;;;;;;;10.77;3.70;;;;;;;;;;5062139;28;20453;-54
2023/10/10 02:13:39;;;;;;;7.87;3.33;;;;;;;;;;5068916;28;20440;-54
2023/10/10 02:16:06;;;;;;;6.77;2.37;;;;;;;;;;5070251;28;20460;-53
2023/10/10 02:18:44;;;;;;;13.60;7.50;;;;;;;;;;5069627;28;20527;-54
2023/10/10 02:21:16;;;;;;;17.07;11.07;;;;;;;;;;5069669;28;20879;-53
2023/10/10 02:23:46;;;;;;;4.63;2.50;;;;;;;;;;5069429;28;20826;-54
2023/10/10 02:26:23;;;;;;;8.40;3.90;;;;;;;;;;5069666;28;20558;-53
2023/10/10 02:29:16;;;;;;;8.00;4.23;;;;;;;;;;5069892;28;20471;-53
2023/10/10 02:31:41;;;;;;;9.93;4.10;;;;;;;;;;5069651;28;20535;-53
2023/10/10 02:34:10;;;;;;;5.70;2.37;;;;;;;;;;5066193;28;20440;-54
2023/10/10 02:36:40;;;;;;;8.10;3.20;;;;;;;;;;5069874;28;20443;-53
2023/10/10 02:39:27;;;;;;;10.53;3.43;;;;;;;;;;5066393;28;20448;-52
2023/10/10 02:41:59;;;;;;;9.10;3.23;;;;;;;;;;5061974;28;20826;-52
2023/10/10 02:44:38;;;;;;;6.57;3.20;;;;;;;;;;5066559;28;20529;-54
2023/10/10 02:47:05;;;;;;;5.70;2.10;;;;;;;;;;5070255;28;20443;-53
2023/10/10 02:49:37;;;;;;;6.60;3.00;;;;;;;;;;5069522;28;20444;-53
2023/10/10 02:52:06;;;;;;;6.27;3.10;;;;;;;;;;5069644;28;20440;-52
2023/10/10 02:54:43;;;;;;;7.17;2.37;;;;;;;;;;5069470;28;20513;-53
2023/10/10 02:57:29;;;;;;;4.93;2.40;;;;;;;;;;5068400;28;20447;-53
2023/10/10 03:00:15;;;;;;;5.40;3.33;;;;;;;;;;5062618;28;20970;-53
2023/10/10 03:02:42;;;;;;;6.27;2.53;;;;;;;;;;5066792;28;20444;-54
2023/10/10 03:05:15;;;;;;;5.90;2.80;;;;;;;;;;5067893;28;20476;-54
2023/10/10 03:07:44;;;;;;;8.43;3.00;;;;;;;;;;5067475;28;20453;-55
2023/10/10 03:10:38;;;;;;;11.27;3.07;;;;;;;;;;5068131;28;20453;-53
2023/10/10 03:13:13;;;;;;;8.27;2.90;;;;;;;;;;5066356;28;20445;-54
2023/10/10 03:15:50;;;;;;;7.20;2.93;;;;;;;;;;5069171;28;20468;-54
2023/10/10 03:18:27;;;;;;;6.20;2.33;;;;;;;;;;5069508;28;20477;-54
2023/10/10 03:21:18;;;;;;;9.70;4.10;;;;;;;;;;5068682;28;20440;-54
2023/10/10 03:23:54;;;;;;;8.50;2.80;;;;;;;;;;5070532;28;20867;-53
2023/10/10 03:26:51;;;;;;;6.60;2.90;;;;;;;;;;5073171;28;20479;-52
2023/10/10 03:29:27;;;;;;;6.73;2.80;;;;;;;;;;5073393;28;20452;-52
2023/10/10 03:32:19;;;;;;;7.77;2.90;;;;;;;;;;5072882;28;20448;-53
2023/10/10 03:34:44;;;;;;;5.90;2.97;;;;;;;;;;5072649;28;20539;-52
2023/10/10 03:37:27;;;;;;;6.93;2.97;;;;;;;;;;5072653;28;20452;-53
2023/10/10 03:39:54;;;;;;;5.10;2.50;;;;;;;;;;5066747;28;20907;-54
2023/10/10 05:24:26;;;;;;;7.90;4.80;;;;;;;;;;5059000;28;20479;-55
2023/10/10 05:26:56;;;;;;;9.97;6.57;;;;;;;;;;5135418;22;20574;-53
2023/10/10 05:29:24;;;;;;;7.17;4.73;;;;;;;;;;5076766;28;20451;-53
2023/10/10 05:31:52;;;;;;;7.70;4.10;;;;;;;;;;5080171;28;20461;-52
2023/10/10 05:34:20;;;;;;;11.20;5.60;;;;;;;;;;5091059;28;20895;-54
2023/10/10 05:36:49;;;;;;;9.10;4.37;;;;;;;;;;5083418;28;20467;-53
2023/10/10 05:39:20;;;;;;;9.77;3.60;;;;;;;;;;5089899;28;20508;-53
2023/10/10 05:41:48;;;;;;;10.23;4.63;;;;;;;;;;5088182;28;20529;-53
2023/10/10 05:44:16;;;;;;;9.67;3.87;;;;;;;;;;5090903;28;20558;-53
2023/10/10 05:46:44;;;;;;;8.43;3.67;;;;;;;;;;5088156;28;20836;-53
2023/10/10 05:49:11;;;;;;;13.63;3.10;;;;;;;;;;5081261;28;20450;-53
2023/10/10 05:51:38;;;;;;;7.60;3.63;;;;;;;;;;5083645;28;20439;-53
2023/10/10 05:54:10;;;;;;;7.47;3.50;;;;;;;;;;5086635;28;20441;-54
2023/10/10 05:56:38;;;;;;;10.40;5.77;;;;;;;;;;5083870;28;20482;-55
2023/10/10 05:59:06;;;;;;;7.43;4.03;;;;;;;;;;5082064;28;20472;-55
2023/10/10 06:01:36;;;;;;;8.27;3.70;;;;;;;;;;5085861;28;20448;-56
2023/10/10 06:04:03;;;;;;;9.00;3.37;;;;;;;;;;5089010;28;20608;-53
2023/10/10 06:06:31;;;;;;;6.53;2.57;;;;;;;;;;5080685;28;20463;-53
2023/10/10 06:09:01;;;;;;;13.17;3.57;;;;;;;;;;5084623;28;20439;-54
2023/10/10 06:11:32;;;;;;;4.80;3.20;;;;;;;;;;5088057;28;20942;-53
2023/10/10 06:14:00;;;;;;;9.90;3.90;;;;;;;;;;5086357;28;20451;-53
2023/10/10 06:16:28;;;;;;;12.47;3.40;;;;;;;;;;5087482;28;20552;-53
2023/10/10 06:18:55;;;;;;;5.07;2.50;;;;;;;;;;5086730;28;20530;-54
2023/10/10 06:21:22;;;;;;;7.37;3.70;;;;;;;;;;5084047;28;20506;-53
2023/10/10 06:23:50;;;;;;;8.17;3.60;;;;;;;;;;5089821;28;20483;-53
2023/10/10 06:26:21;;;;;;;11.00;3.90;;;;;;;;;;5082807;28;20475;-54
2023/10/10 06:28:53;;;;;;;7.03;4.27;;;;;;;;;;5090035;28;20452;-53
2023/10/10 06:31:20;;;;;;;14.00;5.77;;;;;;;;;;5085886;28;20463;-53
2023/10/10 06:33:50;;;;;;;7.33;4.47;;;;;;;;;;5088385;28;20448;-51
2023/10/10 06:36:33;;;;;;;9.50;3.60;;;;;;;;;;5089967;28;20600;-51
2023/10/10 06:39:18;;;;;;;9.23;3.70;;;;;;;;;;5090506;28;20488;-51
2023/10/10 06:41:48;;;;;;;13.80;8.80;;;;;;;;;;5085211;28;20839;-52
2023/10/10 06:44:31;;;;;;;14.73;8.60;;;;;;;;;;5090241;28;20487;-52
2023/10/10 06:46:59;;;;;;;10.90;5.23;;;;;;;;;;5081878;28;20496;-52
2023/10/10 06:49:26;;;;;;;9.00;4.50;;;;;;;;;;5082701;28;20975;-52
2023/10/10 06:51:55;;;;;;;8.00;4.10;;;;;;;;;;5087642;28;21034;-51
2023/10/10 06:54:28;;;;;;;36.90;6.30;;;;;;;;;;5090148;28;20497;-52
2023/10/10 06:57:04;;;;;;;8.40;3.23;;;;;;;;;;5090381;28;20471;-51
2023/10/10 06:59:35;;;;;;;8.47;3.87;;;;;;;;;;5090939;28;20454;-50
2023/10/10 07:02:13;;;;;;;9.50;4.87;;;;;;;;;;5086821;28;20469;-51
2023/10/10 07:04:41;;;;;;;8.67;4.50;;;;;;;;;;5093641;28;20478;-52
2023/10/10 07:07:09;;;;;;;12.30;4.63;;;;;;;;;;5088050;28;20508;-51
2023/10/10 07:09:37;;;;;;;19.70;6.40;;;;;;;;;;5090074;28;20455;-51
2023/10/10 07:12:10;;;;;;;12.93;4.53;;;;;;;;;;5093724;28;20447;-51
2023/10/10 07:14:40;;;;;;;8.40;4.70;;;;;;;;;;5093799;28;20523;-51
2023/10/10 07:17:11;;;;;;;9.30;4.40;;;;;;;;;;5093418;28;20554;-52
2023/10/10 07:19:55;;;;;;;14.67;4.70;;;;;;;;;;5091037;28;21106;-51
2023/10/10 07:22:22;;;;;;;41.30;11.87;;;;;;;;;;5091107;28;20823;-51
2023/10/10 07:24:55;;;;;;;7.73;4.40;;;;;;;;;;5093261;28;20499;-52
2023/10/10 07:27:30;;;;;;;8.90;4.23;;;;;;;;;;5094193;28;20439;-51
2023/10/10 07:29:59;;;;;;;8.17;4.10;;;;;;;;;;5092331;28;20869;-51
2023/10/10 07:32:29;;;;;;;10.50;4.77;;;;;;;;;;5091681;28;20478;-51
2023/10/10 07:34:58;;;;;;;8.53;4.43;;;;;;;;;;5091781;28;20467;-51
2023/10/10 07:37:29;;;;;;;7.87;4.20;;;;;;;;;;5087032;28;20444;-52
2023/10/10 07:39:57;;;;;;;10.10;4.60;;;;;;;;;;5086371;28;20806;-51
2023/10/10 07:42:29;;;;;;;8.93;4.20;;;;;;;;;;5085588;28;20520;-52
2023/10/10 07:44:56;;;;;;;9.80;4.03;;;;;;;;;;5093593;28;20479;-49
2023/10/10 07:47:32;;;;;;;8.10;4.00;;;;;;;;;;5088583;28;20472;-51
2023/10/10 07:49:59;;;;;;;6.60;3.57;;;;;;;;;;5086031;28;20975;-51
2023/10/10 07:52:27;;;;;;;8.57;3.27;;;;;;;;;;5081130;28;20447;-52
2023/10/10 07:55:03;;;;;;;7.03;4.10;;;;;;;;;;5093395;28;20439;-53
2023/10/10 07:57:55;;;;;;;8.97;3.70;;;;;;;;;;5089865;28;20443;-51
2023/10/10 08:00:18;;;;;;;9.03;4.67;;;;;;;;;;5093245;28;21033;-52
2023/10/10 08:02:49;;;;;;;8.73;5.27;;;;;;;;;;5093043;28;20448;-52
2023/10/10 08:05:19;;;;;;;10.90;4.37;;;;;;;;;;5093480;28;20487;-51
2023/10/10 08:07:47;;;;;;;8.53;4.07;;;;;;;;;;5093243;28;20448;-51
2023/10/10 08:10:29;;;;;;;10.70;3.47;;;;;;;;;;5089797;28;20803;-52
2023/10/10 08:12:57;;;;;;;13.57;6.73;;;;;;;;;;5092701;28;20843;-52
2023/10/10 08:15:26;;;;;;;16.00;6.03;;;;;;;;;;5093145;28;20896;-51
2023/10/10 08:17:55;;;;;;;7.30;4.90;;;;;;;;;;5092818;28;20534;-51
2023/10/10 08:23:24;;;;;;;6.90;3.10;;;;;;;;;;5030213;28;20447;-51
2023/10/10 08:25:51;;;;;;;23.53;5.53;;;;;;;;;;5075806;28;20495;-51
2023/10/10 08:28:21;;;;;;;23.43;6.70;;;;;;;;;;5092724;28;20496;-51
2023/10/10 08:30:48;;;;;;;10.77;5.50;;;;;;;;;;5092560;28;20471;-53
2023/10/10 08:33:17;;;;;;;6.70;3.40;;;;;;;;;;5092762;28;20444;-51
2023/10/10 08:35:44;;;;;;;9.50;3.97;;;;;;;;;;5092458;28;20547;-51
2023/10/10 08:38:13;;;;;;;8.03;2.90;;;;;;;;;;5085109;28;20448;-51
2023/10/10 08:40:41;;;;;;;5.67;3.13;;;;;;;;;;5089153;28;20493;-51
2023/10/10 08:43:10;;;;;;;9.83;4.30;;;;;;;;;;5086612;28;20531;-53
2023/10/10 08:45:43;;;;;;;8.80;3.80;;;;;;;;;;5090331;28;20508;-52
2023/10/10 08:48:13;;;;;;;9.27;3.37;;;;;;;;;;5092598;28;20471;-54
2023/10/10 08:50:44;;;;;;;19.10;4.90;;;;;;;;;;5092009;28;20505;-51
2023/10/10 08:53:12;;;;;;;12.57;3.87;;;;;;;;;;5085216;28;20937;-52
2023/10/10 08:55:40;;;;;;;11.53;4.20;;;;;;;;;;5090329;28;20491;-53
2023/10/10 08:58:08;;;;;;;30.50;6.13;;;;;;;;;;5081603;28;20826;-52
2023/10/10 09:00:37;;;;;;;93.83;18.57;;;;;;;;;;5086526;28;20533;-53
2023/10/10 09:03:07;;;;;;;9.03;4.00;;;;;;;;;;5091851;28;20447;-51
2023/10/10 09:05:36;;;;;;;9.03;3.70;;;;;;;;;;5084491;28;20563;-52
2023/10/10 09:08:14;;;;;;;12.60;3.83;;;;;;;;;;5091839;28;20458;-51
2023/10/10 09:10:42;;;;;;;9.17;3.93;;;;;;;;;;5087741;28;20501;-52
2023/10/10 09:13:09;;;;;;;9.57;5.30;;;;;;;;;;5082188;28;20447;-52
2023/10/10 09:15:40;;;;;;;10.93;3.67;;;;;;;;;;5087755;28;20490;-51
2023/10/10 09:18:16;;;;;;;11.30;4.23;;;;;;;;;;5090292;28;20580;-51
2023/10/10 09:20:44;;;;;;;9.17;3.20;;;;;;;;;;5091044;28;20447;-52
2023/10/10 09:23:22;;;;;;;12.20;3.37;;;;;;;;;;5090371;28;20989;-52
2023/10/10 09:26:04;;;;;;;9.63;3.30;;;;;;;;;;5091149;28;20509;-52
2023/10/10 09:28:44;;;;;;;9.83;4.13;;;;;;;;;;5091482;28;20447;-53
2023/10/10 09:31:20;;;;;;;6.80;2.37;;;;;;;;;;5085700;28;20447;-52
2023/10/10 09:33:47;;;;;;;10.73;3.30;;;;;;;;;;5091641;28;20482;-52
2023/10/10 09:36:19;;;;;;;6.63;3.43;;;;;;;;;;5091500;28;20508;-53
2023/10/10 09:38:53;;;;;;;10.97;4.03;;;;;;;;;;5091171;28;20455;-52
2023/10/10 09:41:29;;;;;;;6.43;3.30;;;;;;;;;;5091195;28;20531;-52
2023/10/10 09:44:28;;;;;;;8.77;3.33;;;;;;;;;;5087955;28;20439;-52
2023/10/10 09:47:12;;;;;;;8.10;3.57;;;;;;;;;;5083525;28;20493;-53
2023/10/10 09:49:43;;;;;;;10.77;3.57;;;;;;;;;;5087685;28;20451;-54
2023/10/10 09:55:02;;;;;;;7.13;2.67;;;;;;;;;;5083725;28;20566;-53
2023/10/10 09:57:31;;;;;;;9.50;3.27;;;;;;;;;;5084353;28;20512;-52
2023/10/10 10:00:05;;;;;;;13.80;3.70;;;;;;;;;;5084243;28;20444;-53
2023/10/10 10:02:43;;;;;;;11.20;3.47;;;;;;;;;;5085560;28;20445;-53
2023/10/10 10:05:16;;;;;;;9.13;3.40;;;;;;;;;;5090864;28;20487;-54
2023/10/10 10:07:56;;;;;;;9.70;3.60;;;;;;;;;;5089307;28;20447;-52
2023/10/10 10:10:48;;;;;;;8.63;4.17;;;;;;;;;;5090660;28;20447;-52
2023/10/10 10:13:28;;;;;;;9.50;3.37;;;;;;;;;;5087963;28;20443;-52
2023/10/10 10:16:08;;;;;;;10.40;4.20;;;;;;;;;;5080033;28;20471;-52
2023/10/10 10:18:45;;;;;;;8.13;3.50;;;;;;;;;;5073935;28;20505;-53
2023/10/10 10:21:18;;;;;;;8.37;3.67;;;;;;;;;;5086651;28;20451;-53
2023/10/10 10:23:56;;;;;;;13.10;3.80;;;;;;;;;;5086660;28;20455;-53
2023/10/10 10:26:33;;;;;;;6.83;3.40;;;;;;;;;;5078225;28;20910;-54
2023/10/10 10:29:15;;;;;;;7.00;2.67;;;;;;;;;;5081728;28;20560;-52
2023/10/10 10:31:49;;;;;;;7.63;3.30;;;;;;;;;;5087720;28;20983;-52
2023/10/10 10:34:25;;;;;;;13.83;3.23;;;;;;;;;;5080529;28;20450;-52
2023/10/10 10:36:57;;;;;;;11.53;3.40;;;;;;;;;;5082388;28;20462;-53
2023/10/10 10:39:27;;;;;;;12.20;3.57;;;;;;;;;;5078614;28;20448;-55
2023/10/10 10:41:53;;;;;;;9.37;3.90;;;;;;;;;;5080841;28;20447;-52
2023/10/10 10:44:45;;;;;;;13.00;3.90;;;;;;;;;;5080555;28;20463;-54
2023/10/10 10:47:13;;;;;;;12.13;4.07;;;;;;;;;;5078463;28;20468;-54
2023/10/10 10:49:40;;;;;;;8.83;3.27;;;;;;;;;;5084639;28;20531;-52
2023/10/10 10:52:17;;;;;;;6.67;3.10;;;;;;;;;;5084366;28;20448;-54
2023/10/10 10:54:45;;;;;;;16.10;3.63;;;;;;;;;;5081639;28;20462;-53
2023/10/10 10:57:27;;;;;;;7.40;3.40;;;;;;;;;;5088393;28;20471;-54
2023/10/10 10:59:57;;;;;;;7.50;2.90;;;;;;;;;;5086734;28;20443;-52
2023/10/10 11:02:32;;;;;;;9.40;3.60;;;;;;;;;;5083317;28;20444;-50
2023/10/10 11:04:59;;;;;;;8.73;3.50;;;;;;;;;;5080230;28;20439;-53
2023/10/10 11:07:41;;;;;;;8.30;2.93;;;;;;;;;;5083962;28;20452;-53
2023/10/10 11:10:09;;;;;;;6.30;3.00;;;;;;;;;;5082940;28;20467;-52
2023/10/10 11:12:37;;;;;;;10.10;3.50;;;;;;;;;;5088228;28;20526;-53
2023/10/10 11:15:10;;;;;;;7.67;3.20;;;;;;;;;;5088087;28;21014;-53
2023/10/10 11:17:42;;;;;;;13.30;4.20;;;;;;;;;;5082465;28;20444;-52
2023/10/10 11:20:50;;;;;;;9.60;3.17;;;;;;;;;;5089331;28;20443;-53
2023/10/10 11:23:17;;;;;;;4.97;2.70;;;;;;;;;;5084173;28;20546;-52
2023/10/10 11:25:46;;;;;;;8.70;3.10;;;;;;;;;;5140299;23;20501;-52
2023/10/10 11:28:21;;;;;;;7.07;3.70;;;;;;;;;;5030012;28;20454;-54
2023/10/10 11:30:52;;;;;;;6.30;3.20;;;;;;;;;;5029324;28;20888;-52
2023/10/10 11:36:29;;;;;;;11.87;3.67;;;;;;;;;;5024090;28;20582;-53
2023/10/10 11:39:15;;;;;;;11.83;4.23;;;;;;;;;;5028356;28;20868;-52
2023/10/10 11:41:42;;;;;;;115.90;24.47;;;;;;;;;;5028621;28;20565;-54
2023/10/10 11:44:09;;;;;;;43.07;8.47;;;;;;;;;;5031012;28;20827;-55
2023/10/10 11:46:38;;;;;;;9.10;3.30;;;;;;;;;;5032637;28;20913;-52
2023/10/10 11:49:06;;;;;;;7.20;3.60;;;;;;;;;;5033279;28;20712;-53
2023/10/10 11:51:34;;;;;;;11.47;3.60;;;;;;;;;;5033024;28;20499;-53
2023/10/10 11:54:01;;;;;;;6.00;3.13;;;;;;;;;;5032980;28;20445;-52
2023/10/10 11:56:31;;;;;;;12.90;3.67;;;;;;;;;;5032862;28;20512;-53
2023/10/10 11:58:58;;;;;;;25.83;6.17;;;;;;;;;;5032854;28;20558;-53
2023/10/10 12:04:20;;;;;;;7.97;3.13;;;;;;;;;;5032677;28;20856;-53
2023/10/10 12:06:48;;;;;;;13.67;3.77;;;;;;;;;;5032509;28;20486;-54
2023/10/10 12:09:19;;;;;;;9.20;3.17;;;;;;;;;;5033175;28;20508;-52
2023/10/10 12:11:46;;;;;;;12.07;3.70;;;;;;;;;;5032195;28;20450;-54
2023/10/10 12:14:19;;;;;;;13.43;5.00;;;;;;;;;;5032605;28;20505;-53
2023/10/10 12:16:50;;;;;;;14.37;3.43;;;;;;;;;;5032382;28;20621;-52
2023/10/10 12:19:18;;;;;;;10.50;4.30;;;;;;;;;;5032664;28;20488;-54
2023/10/10 12:21:46;;;;;;;11.20;3.40;;;;;;;;;;5013007;28;20456;-53
2023/10/10 12:24:13;;;;;;;31.30;6.07;;;;;;;;;;5012937;28;20486;-53
2023/10/10 12:26:41;;;;;;;7.10;2.97;;;;;;;;;;5011829;28;20609;-55
2023/10/10 12:29:10;;;;;;;5.70;2.40;;;;;;;;;;5012744;28;20451;-53
2023/10/10 12:31:38;;;;;;;10.60;3.50;;;;;;;;;;5012538;28;20447;-54
2023/10/10 12:34:09;;;;;;;7.90;3.40;;;;;;;;;;5012499;28;20938;-55
2023/10/10 12:36:37;;;;;;;13.83;3.37;;;;;;;;;;5012288;28;20463;-53
2023/10/10 12:39:14;;;;;;;9.17;3.47;;;;;;;;;;5012549;28;20443;-53
2023/10/10 12:41:45;;;;;;;9.10;4.10;;;;;;;;;;5012008;28;20443;-53
2023/10/10 12:44:13;;;;;;;17.10;4.30;;;;;;;;;;5012494;28;20455;-53
2023/10/10 12:46:41;;;;;;;12.50;3.77;;;;;;;;;;5012094;28;20519;-53
2023/10/10 12:49:11;;;;;;;10.90;3.47;;;;;;;;;;5012126;28;20554;-53
2023/10/10 12:51:44;;;;;;;9.53;4.47;;;;;;;;;;5012021;28;20888;-52
2023/10/10 12:54:13;;;;;;;9.07;3.93;;;;;;;;;;5012339;28;20454;-54
2023/10/10 12:56:48;;;;;;;10.20;3.60;;;;;;;;;;5011446;28;20459;-53
2023/10/10 12:59:18;;;;;;;10.53;3.83;;;;;;;;;;5012222;28;20451;-53
2023/10/10 13:01:46;;;;;;;8.03;3.77;;;;;;;;;;5012174;28;20486;-53
2023/10/10 13:04:17;;;;;;;14.00;5.47;;;;;;;;;;5011763;28;20894;-53
2023/10/10 13:06:51;;;;;;;9.43;3.10;;;;;;;;;;5011672;28;20537;-53
2023/10/10 13:09:19;;;;;;;8.40;3.50;;;;;;;;;;5011595;28;20836;-54
2023/10/10 13:11:48;;;;;;;9.60;3.63;;;;;;;;;;5011308;28;20455;-52
2023/10/10 13:14:18;;;;;;;7.03;3.27;;;;;;;;;;5011805;28;20455;-53
2023/10/10 13:17:13;;;;;;;9.00;3.90;;;;;;;;;;5011692;28;20467;-52
2023/10/10 13:19:41;;;;;;;11.73;4.10;;;;;;;;;;5011279;28;20452;-52
2023/10/10 13:22:20;;;;;;;7.47;3.80;;;;;;;;;;5011587;28;20447;-52
2023/10/10 13:24:48;;;;;;;7.17;3.67;;;;;;;;;;5011723;28;20461;-53
2023/10/10 13:27:17;;;;;;;9.80;3.47;;;;;;;;;;5011101;28;20918;-53
2023/10/10 13:29:44;;;;;;;7.37;3.60;;;;;;;;;;5011121;28;20447;-52
2023/10/10 13:32:12;;;;;;;8.67;3.30;;;;;;;;;;5011252;28;20509;-53
2023/10/10 13:34:39;;;;;;;9.83;3.67;;;;;;;;;;5013611;28;20806;-53
2023/10/10 13:37:07;;;;;;;6.37;3.37;;;;;;;;;;5030338;28;20914;-54
2023/10/10 13:39:43;;;;;;;6.03;3.50;;;;;;;;;;5025797;28;20452;-53
2023/10/10 13:42:14;;;;;;;9.20;3.07;;;;;;;;;;5030227;28;20445;-53
2023/10/10 13:44:42;;;;;;;11.10;4.90;;;;;;;;;;5028335;28;20459;-53
2023/10/10 13:47:10;;;;;;;6.40;3.60;;;;;;;;;;5014430;28;20488;-54
2023/10/10 13:49:44;;;;;;;13.07;4.00;;;;;;;;;;5021446;28;20439;-53
2023/10/10 13:52:11;;;;;;;12.97;4.80;;;;;;;;;;5015846;28;20439;-54
2023/10/10 13:54:40;;;;;;;8.13;3.60;;;;;;;;;;5010510;28;20928;-53
2023/10/10 13:57:09;;;;;;;8.30;3.33;;;;;;;;;;5010684;28;20910;-53
2023/10/10 13:59:38;;;;;;;10.83;4.03;;;;;;;;;;5010657;28;20450;-53
2023/10/10 14:02:10;;;;;;;13.73;5.77;;;;;;;;;;5010732;28;20888;-53
2023/10/10 14:04:48;;;;;;;20.70;7.40;;;;;;;;;;5010720;28;20533;-53
2023/10/10 14:07:15;;;;;;;22.07;9.20;;;;;;;;;;5019695;28;20959;-52
2023/10/10 14:09:48;;;;;;;14.90;4.70;;;;;;;;;;5020562;28;20511;-53
2023/10/10 14:12:20;;;;;;;10.97;4.30;;;;;;;;;;5025276;28;20453;-52
2023/10/10 14:14:48;;;;;;;18.73;7.37;;;;;;;;;;5021795;28;20576;-53
2023/10/10 14:17:15;;;;;;;23.00;11.73;;;;;;;;;;5015727;28;20467;-52
2023/10/10 14:19:43;;;;;;;27.77;12.17;;;;;;;;;;5015887;28;20556;-53
2023/10/10 14:22:12;;;;;;;17.50;7.43;;;;;;;;;;5018928;28;20449;-54
2023/10/10 14:24:40;;;;;;;10.67;4.30;;;;;;;;;;5010587;28;21055;-53
2023/10/10 14:27:09;;;;;;;8.87;3.80;;;;;;;;;;5010638;28;20487;-54
2023/10/10 14:29:41;;;;;;;57.03;10.13;;;;;;;;;;5010167;28;20505;-54
2023/10/10 14:32:10;;;;;;;18.47;4.37;;;;;;;;;;5011743;28;20458;-54
2023/10/10 14:34:39;;;;;;;9.60;4.67;;;;;;;;;;5015892;28;20895;-53
2023/10/10 14:37:06;;;;;;;9.30;4.40;;;;;;;;;;5017910;28;20814;-54
2023/10/10 14:39:36;;;;;;;8.17;4.00;;;;;;;;;;5019102;28;20549;-54
2023/10/10 14:42:03;;;;;;;7.77;4.10;;;;;;;;;;5021532;28;20827;-53
2023/10/10 14:44:32;;;;;;;9.43;5.60;;;;;;;;;;5025082;28;22019;-52
2023/10/10 14:47:02;;;;;;;7.53;4.20;;;;;;;;;;5025145;28;20929;-52
2023/10/10 14:49:30;;;;;;;15.03;7.30;;;;;;;;;;5023138;28;20451;-54
2023/10/10 14:52:03;;;;;;;15.30;6.80;;;;;;;;;;5022292;28;20540;-54
2023/10/10 14:54:30;;;;;;;10.23;5.37;;;;;;;;;;5024305;28;20977;-53
2023/10/10 14:56:58;;;;;;;10.83;4.97;;;;;;;;;;5023217;28;20511;-54
2023/10/10 14:59:25;;;;;;;10.27;4.27;;;;;;;;;;5024812;28;20461;-52
2023/10/10 15:01:59;;;;;;;8.13;4.63;;;;;;;;;;5023565;28;20809;-53
2023/10/10 15:04:28;;;;;;;10.50;4.30;;;;;;;;;;5023015;28;20459;-53
2023/10/10 15:06:56;;;;;;;12.20;4.27;;;;;;;;;;5021518;28;20780;-53
2023/10/10 15:09:25;;;;;;;10.03;3.70;;;;;;;;;;5029702;28;20473;-53
2023/10/10 15:11:53;;;;;;;10.67;3.90;;;;;;;;;;5027895;28;20454;-55
2023/10/10 15:14:21;;;;;;;8.80;3.93;;;;;;;;;;5025004;28;20520;-53
2023/10/10 15:16:49;;;;;;;10.23;3.77;;;;;;;;;;5020553;28;20458;-55
2023/10/10 15:19:17;;;;;;;6.50;4.00;;;;;;;;;;5022082;28;20449;-54
2023/10/10 15:21:48;;;;;;;9.53;3.33;;;;;;;;;;5023133;28;20503;-54
2023/10/10 15:24:16;;;;;;;14.43;4.30;;;;;;;;;;5025611;28;20454;-54
2023/10/10 15:26:45;;;;;;;6.80;4.20;;;;;;;;;;5021242;28;20565;-53
2023/10/10 15:29:14;;;;;;;9.50;3.90;;;;;;;;;;5012704;28;20832;-53
2023/10/10 15:31:41;;;;;;;10.20;4.43;;;;;;;;;;5012436;28;20477;-53
2023/10/10 15:34:10;;;;;;;10.80;3.97;;;;;;;;;;5012953;28;20931;-53
2023/10/10 15:36:43;;;;;;;8.87;3.73;;;;;;;;;;5011581;28;20525;-53
2023/10/10 15:39:11;;;;;;;10.10;3.80;;;;;;;;;;5010032;28;20466;-53
2023/10/10 15:41:39;;;;;;;6.90;3.53;;;;;;;;;;5009542;28;20439;-53
2023/10/10 15:44:08;;;;;;;6.60;3.83;;;;;;;;;;5010314;28;20453;-53
2023/10/10 15:46:36;;;;;;;17.23;4.57;;;;;;;;;;5010641;28;20467;-53
2023/10/10 15:49:08;;;;;;;18.13;5.00;;;;;;;;;;5010538;28;21000;-53
2023/10/10 15:51:37;;;;;;;7.40;3.50;;;;;;;;;;5010522;28;20447;-54
2023/10/10 15:54:08;;;;;;;11.47;3.57;;;;;;;;;;5010856;28;20513;-54
2023/10/10 15:56:35;;;;;;;13.17;5.37;;;;;;;;;;5017642;28;20825;-53
2023/10/10 15:59:02;;;;;;;10.30;3.93;;;;;;;;;;5029759;28;20442;-53
2023/10/10 16:01:31;;;;;;;8.93;4.07;;;;;;;;;;5030014;28;20457;-53
2023/10/10 16:04:04;;;;;;;10.70;3.90;;;;;;;;;;5020294;28;20449;-53
2023/10/10 16:06:33;;;;;;;8.20;4.40;;;;;;;;;;5013323;28;20813;-52
2023/10/10 16:09:07;;;;;;;8.77;3.73;;;;;;;;;;5030790;28;21007;-54
2023/10/10 16:11:36;;;;;;;8.83;3.40;;;;;;;;;;5030558;28;20445;-53
2023/10/10 16:14:08;;;;;;;10.67;3.33;;;;;;;;;;5030965;28;20503;-51
2023/10/10 16:16:35;;;;;;;6.77;4.13;;;;;;;;;;5031153;28;20472;-53
2023/10/10 16:19:04;;;;;;;9.60;3.67;;;;;;;;;;5022424;28;20438;-52
2023/10/10 16:21:31;;;;;;;6.50;3.60;;;;;;;;;;5025528;28;20446;-54
2023/10/10 16:24:00;;;;;;;7.80;3.90;;;;;;;;;;5019488;28;20447;-53
2023/10/10 16:26:28;;;;;;;8.40;4.10;;;;;;;;;;5022363;28;20474;-53
2023/10/10 16:28:56;;;;;;;8.00;3.67;;;;;;;;;;5018024;28;20478;-53
2023/10/10 16:31:29;;;;;;;11.33;3.20;;;;;;;;;;5019743;28;20439;-53
2023/10/10 16:33:56;;;;;;;9.37;4.60;;;;;;;;;;5016576;28;20439;-53
2023/10/10 16:36:24;;;;;;;8.37;5.23;;;;;;;;;;5025157;28;20969;-53
2023/10/10 16:38:52;;;;;;;6.33;3.70;;;;;;;;;;5027216;28;20442;-52
2023/10/10 16:41:19;;;;;;;8.03;4.03;;;;;;;;;;5022936;28;20440;-53
2023/10/10 16:43:47;;;;;;;7.33;3.40;;;;;;;;;;5022724;28;20528;-52
2023/10/10 16:46:15;;;;;;;10.90;3.63;;;;;;;;;;5020954;28;20542;-52
2023/10/10 16:48:44;;;;;;;7.23;3.57;;;;;;;;;;5020914;28;20471;-51
2023/10/10 16:51:13;;;;;;;11.13;4.00;;;;;;;;;;5021557;28;20992;-52
2023/10/10 16:53:42;;;;;;;7.10;3.10;;;;;;;;;;5019820;28;20581;-52
2023/10/10 16:56:10;;;;;;;6.47;3.43;;;;;;;;;;5014061;28;21078;-53
2023/10/10 16:58:38;;;;;;;10.50;4.00;;;;;;;;;;5013146;28;20501;-54